Time;durP1;ratioP1;P1;durP2;ratioP2;P2;SDS_P1;SDS_P2;PMS_P1;PMS_P2;Temp;Humidity;BMP_temperature;BMP_pressure;BME280_temperature;BME280_humidity;BME280_pressure;Samples;Min_cycle;Max_cycle;Signal;HPM_P1;HPM_P2
2021/08/02 00:01:45;;;;;;;3.65;3.15;;;;;;;14.68;77.48;98565.12;1678374;84;21010;-63
2021/08/02 00:04:11;;;;;;;5.30;2.75;;;;;;;14.66;77.51;98565.72;1688049;84;21516;-63
2021/08/02 00:07:00;;;;;;;3.35;2.60;;;;;;;14.63;77.51;98575.17;1673256;84;20930;-63
2021/08/02 00:09:36;;;;;;;2.92;2.62;;;;;;;14.61;77.54;98567.88;1677509;84;22102;-62
2021/08/02 00:12:07;;;;;;;3.47;2.58;;;;;;;14.59;77.57;98569.34;1676288;84;21485;-63
2021/08/02 00:14:35;;;;;;;4.62;2.30;;;;;;;14.53;77.52;98569.81;1654279;85;20968;-63
2021/08/02 00:17:04;;;;;;;4.58;2.70;;;;;;;14.43;77.43;98573.66;1679486;84;21440;-63
2021/08/02 00:19:31;;;;;;;4.08;2.50;;;;;;;14.38;77.67;98582.38;1673270;84;20935;-63
2021/08/02 00:21:59;;;;;;;4.70;2.70;;;;;;;14.34;77.75;98575.72;1680794;84;21009;-63
2021/08/02 00:24:26;;;;;;;7.28;2.65;;;;;;;14.29;77.66;98583.13;1645051;84;20947;-63
2021/08/02 00:26:56;;;;;;;5.35;2.50;;;;;;;14.26;77.81;98580.76;1656855;84;24343;-63
2021/08/02 00:29:24;;;;;;;3.37;2.70;;;;;;;14.26;77.87;98578.96;1658930;83;20984;-63
2021/08/02 00:31:52;;;;;;;2.85;2.55;;;;;;;14.25;77.92;98581.70;1690629;82;21502;-63
2021/08/02 00:34:19;;;;;;;3.65;2.87;;;;;;;14.24;78.00;98574.79;1684140;82;21147;-63
2021/08/02 00:36:56;;;;;;;3.92;2.75;;;;;;;14.28;78.09;98573.57;1691625;82;21659;-63
2021/08/02 00:39:58;;;;;;;4.50;2.87;;;;;;;14.27;78.04;98566.66;1719078;81;20939;-63
2021/08/02 00:43:10;;;;;;;3.35;3.05;;;;;;;14.22;78.07;98574.07;1739229;81;21446;-63
2021/08/02 00:45:37;;;;;;;3.10;2.70;;;;;;;14.20;78.22;98568.10;1719115;81;21012;-63
2021/08/02 00:48:17;;;;;;;3.45;2.85;;;;;;;14.07;78.18;98558.59;1756017;80;21493;-63
2021/08/02 00:50:50;;;;;;;5.15;2.70;;;;;;;14.13;78.16;98574.81;1754955;79;21040;-63
2021/08/02 00:53:23;;;;;;;2.90;2.60;;;;;;;14.09;78.20;98575.06;1760643;78;21049;-63
2021/08/02 00:56:03;;;;;;;4.30;3.40;;;;;;;14.05;78.16;98564.44;1733240;80;20971;-63
2021/08/02 00:58:32;;;;;;;5.37;3.12;;;;;;;13.97;78.10;98552.41;1762766;80;20952;-63
2021/08/02 01:00:59;;;;;;;4.58;3.17;;;;;;;13.97;78.10;98552.41;1765502;80;21019;-63
2021/08/02 01:03:31;;;;;;;4.40;2.77;;;;;;;13.95;78.37;98554.34;1732321;81;20863;-63
2021/08/02 01:05:58;;;;;;;3.35;2.95;;;;;;;13.95;78.37;98556.97;1767091;80;20863;-63
2021/08/02 01:08:38;;;;;;;3.75;2.77;;;;;;;13.92;78.45;98557.21;1762555;80;21447;-63
2021/08/02 01:11:14;;;;;;;3.17;2.77;;;;;;;13.90;78.37;98553.04;1736567;81;20919;-63
2021/08/02 01:13:43;;;;;;;6.83;3.12;;;;;;;13.82;78.75;98549.22;1760071;80;21944;-63
2021/08/02 01:16:10;;;;;;;5.92;3.30;;;;;;;13.82;78.75;98549.22;1766352;80;20892;-63
2021/08/02 01:18:39;;;;;;;5.40;3.50;;;;;;;13.82;78.63;98561.51;1764068;80;20932;-63
2021/08/02 01:21:08;;;;;;;5.33;3.30;;;;;;;13.78;78.59;98557.45;1763547;80;20903;-63
2021/08/02 01:23:37;;;;;;;4.25;3.22;;;;;;;13.72;78.65;98561.87;1764457;80;21519;-63
2021/08/02 01:26:42;;;;;;;5.17;3.20;;;;;;;13.71;78.58;98565.45;1763131;80;21130;-63
2021/08/02 01:30:04;;;;;;;4.90;3.10;;;;;;;13.64;78.53;98567.25;1760421;80;20919;-63
2021/08/02 01:32:30;;;;;;;5.08;3.40;;;;;;;13.51;78.75;98570.47;1750028;80;21505;-63
2021/08/02 01:34:57;;;;;;;4.72;3.33;;;;;;;13.51;78.75;98570.47;1737853;81;21540;-63
2021/08/02 01:37:24;;;;;;;3.60;3.30;;;;;;;13.50;78.82;98570.57;1739415;80;20871;-63
2021/08/02 01:39:55;;;;;;;8.57;3.83;;;;;;;13.49;78.93;98563.19;1738889;81;21497;-63
2021/08/02 01:42:22;;;;;;;5.72;3.95;;;;;;;13.49;78.96;98568.43;1741108;81;21449;-63
2021/08/02 01:44:49;;;;;;;6.42;3.62;;;;;;;13.49;78.97;98564.50;1754211;80;21472;-63
2021/08/02 01:47:21;;;;;;;4.47;3.37;;;;;;;13.48;79.01;98570.70;1731218;80;20966;-63
2021/08/02 01:50:04;;;;;;;4.75;3.55;;;;;;;13.48;79.08;98565.47;1741077;81;20889;-63
2021/08/02 01:53:11;;;;;;;5.15;3.55;;;;;;;13.49;79.10;98563.19;1758707;80;21059;-63
2021/08/02 01:55:38;;;;;;;;;;;;;;;13.48;79.15;98571.19;1743633;80;20896;-63
2021/08/02 01:58:10;;;;;;;4.03;3.30;;;;;;;13.46;79.28;98563.42;1749669;80;20099;-63
2021/08/02 02:00:44;;;;;;;5.10;3.70;;;;;;;13.45;79.25;98567.02;1765164;80;20903;-63
2021/08/02 02:03:15;;;;;;;5.95;3.92;;;;;;;13.44;79.29;98560.08;1744639;80;20941;-63
2021/08/02 02:05:49;;;;;;;4.45;3.60;;;;;;;13.46;79.39;98559.50;1739866;80;21049;-63
2021/08/02 02:08:36;;;;;;;5.75;3.67;;;;;;;13.38;79.63;98547.45;1734599;80;21486;-63
2021/08/02 02:11:05;;;;;;;4.42;3.58;;;;;;;13.38;79.63;98547.45;1739383;81;21477;-63
2021/08/02 02:13:39;;;;;;;5.28;3.62;;;;;;;13.49;79.51;98562.36;1739849;80;20909;-63
2021/08/02 02:16:09;;;;;;;5.70;4.15;;;;;;;13.54;79.60;98561.53;1739530;81;21533;-63
2021/08/02 02:18:39;;;;;;;5.67;3.90;;;;;;;13.57;79.71;98560.81;1749478;81;21034;-63
2021/08/02 02:21:08;;;;;;;4.28;3.85;;;;;;;13.60;79.69;98560.56;1747360;81;20903;-63
2021/08/02 02:23:35;;;;;;;5.40;3.98;;;;;;;13.63;79.72;98556.87;1746890;81;20949;-63
2021/08/02 02:26:01;;;;;;;4.63;3.73;;;;;;;13.66;79.73;98556.14;1714997;81;20951;-63
2021/08/02 02:28:31;;;;;;;3.92;3.52;;;;;;;13.69;79.77;98552.93;1738982;81;20942;-63
2021/08/02 02:30:58;;;;;;;3.55;3.25;;;;;;;13.70;79.74;98546.75;1735918;81;21092;-63
2021/08/02 02:33:27;;;;;;;4.22;3.72;;;;;;;13.72;79.78;98552.69;1735210;81;20883;-63
2021/08/02 02:35:54;;;;;;;3.58;3.27;;;;;;;13.70;79.73;98552.00;1736016;81;20918;-63
2021/08/02 02:38:21;;;;;;;4.60;3.37;;;;;;;13.68;79.74;98548.66;1735313;81;20912;-63
2021/08/02 02:40:48;;;;;;;4.05;3.30;;;;;;;13.68;79.77;98547.34;1736451;81;20996;-63
2021/08/02 02:43:15;;;;;;;5.85;3.77;;;;;;;13.65;79.76;98557.59;1736978;81;21042;-63
2021/08/02 02:45:44;;;;;;;3.60;3.22;;;;;;;13.63;79.74;98555.08;1737222;81;20935;-63
2021/08/02 02:48:15;;;;;;;3.83;3.25;;;;;;;13.64;79.88;98561.19;1738667;81;21371;-63
2021/08/02 02:50:45;;;;;;;4.80;3.60;;;;;;;13.63;79.81;98565.56;1734322;81;20939;-63
2021/08/02 02:53:12;;;;;;;4.15;3.15;;;;;;;13.63;79.95;98560.80;1735433;81;20943;-63
2021/08/02 02:55:41;;;;;;;4.75;3.33;;;;;;;13.63;79.89;98560.32;1743716;81;21160;-63
2021/08/02 02:58:07;;;;;;;6.20;3.08;;;;;;;13.62;79.90;98556.05;1738247;82;20935;-63
2021/08/02 03:00:35;;;;;;;4.70;3.40;;;;;;;13.46;80.02;98530.66;1752848;81;20883;-63
2021/08/02 03:03:03;;;;;;;5.15;3.83;;;;;;;13.52;79.88;98559.02;1743846;81;21476;-63
2021/08/02 03:05:34;;;;;;;3.67;3.22;;;;;;;13.48;79.95;98561.53;1718481;81;20937;-63
2021/08/02 03:08:02;;;;;;;4.72;3.10;;;;;;;13.49;80.07;98568.43;1737815;81;21881;-63
2021/08/02 03:10:29;;;;;;;5.70;3.50;;;;;;;13.53;80.15;98564.64;1739999;81;20926;-63
2021/08/02 03:12:55;;;;;;;3.70;3.40;;;;;;;13.53;80.13;98562.02;1739133;81;21520;-63
2021/08/02 03:15:22;;;;;;;3.65;3.15;;;;;;;13.44;80.26;98553.53;1739252;81;20938;-63
2021/08/02 03:17:49;;;;;;;4.43;3.20;;;;;;;13.57;80.28;98571.30;1740849;81;21509;-63
2021/08/02 03:20:16;;;;;;;4.10;3.43;;;;;;;13.62;80.26;98576.20;1737463;81;21086;-62
2021/08/02 03:22:52;;;;;;;;;;;;;;;13.63;80.27;98570.81;1736899;81;20876;-63
2021/08/02 03:25:32;;;;;;;4.78;3.42;;;;;;;13.68;80.44;98572.26;1738751;81;20104;-63
2021/08/02 03:28:24;;;;;;;5.62;3.27;;;;;;;13.69;80.48;98575.23;1767350;80;22200;-63
2021/08/02 03:30:55;;;;;;;3.67;3.20;;;;;;;13.77;80.57;98574.16;1750080;81;20878;-63
2021/08/02 03:33:30;;;;;;;4.03;3.05;;;;;;;13.77;80.57;98574.16;1766094;79;21074;-63
2021/08/02 03:36:00;;;;;;;4.08;3.60;;;;;;;13.70;80.41;98552.83;1754032;79;20910;-63
2021/08/02 03:38:28;;;;;;;3.45;2.92;;;;;;;13.86;80.44;98571.66;1746873;79;20904;-63
2021/08/02 03:40:57;;;;;;;3.45;3.12;;;;;;;13.83;80.44;98550.05;1754361;80;20915;-63
2021/08/02 03:43:24;;;;;;;4.08;3.55;;;;;;;14.00;80.44;98544.31;1741126;81;20927;-63
2021/08/02 03:45:52;;;;;;;5.03;3.10;;;;;;;14.00;80.44;98544.31;1757875;81;24164;-63
2021/08/02 03:48:20;;;;;;;3.80;3.22;;;;;;;14.23;80.40;98562.63;1764807;81;20911;-63
2021/08/02 03:50:47;;;;;;;3.87;3.08;;;;;;;14.31;80.32;98562.81;1754684;79;20863;-63
2021/08/02 03:53:13;;;;;;;5.17;2.90;;;;;;;14.39;80.38;98565.66;1741742;81;20904;-63
2021/08/02 03:55:43;;;;;;;4.43;3.00;;;;;;;14.49;80.33;98571.84;1776458;79;21518;-63
2021/08/02 03:58:10;;;;;;;6.10;3.02;;;;;;;14.58;80.26;98564.20;1770090;80;21088;-63
2021/08/02 04:00:37;;;;;;;4.17;2.92;;;;;;;14.69;80.28;98568.91;1760665;80;20950;-63
2021/08/02 04:03:05;;;;;;;3.22;2.70;;;;;;;14.82;80.26;98571.38;1781326;79;20871;-63
2021/08/02 04:05:31;;;;;;;;;;;;;;;14.93;80.21;98572.62;1752073;79;20940;-63
2021/08/02 04:08:01;;;;;;;4.37;3.10;;;;;;;15.04;80.11;98581.39;1752571;81;20460;-63
2021/08/02 04:10:29;;;;;;;3.10;2.37;;;;;;;15.31;80.76;98578.23;1746115;79;21112;-63
2021/08/02 04:12:56;;;;;;;7.22;3.00;;;;;;;16.03;80.49;98582.58;1746706;80;20887;-63
2021/08/02 04:15:23;;;;;;;5.10;2.87;;;;;;;16.43;80.00;98580.35;1746796;81;20911;-63
2021/08/02 04:17:50;;;;;;;2.80;2.37;;;;;;;16.99;80.01;98588.91;1770206;79;20964;-63
2021/08/02 04:20:18;;;;;;;4.33;2.42;;;;;;;17.56;79.51;98579.20;1770686;79;20904;-63
2021/08/02 04:22:48;;;;;;;3.83;2.35;;;;;;;18.08;78.53;98579.52;1773415;79;21018;-64
2021/08/02 04:25:14;;;;;;;3.17;2.20;;;;;;;18.07;77.95;98585.79;1775638;79;21500;-63
2021/08/02 04:27:41;;;;;;;3.40;2.20;;;;;;;18.01;78.07;98577.14;1769501;79;21517;-63
2021/08/02 04:30:08;;;;;;;3.77;2.10;;;;;;;18.00;78.19;98582.06;1764477;79;20912;-63
2021/08/02 04:32:35;;;;;;;3.60;2.08;;;;;;;18.00;78.11;98587.34;1764583;80;20923;-63
2021/08/02 04:35:02;;;;;;;2.50;2.05;;;;;;;17.84;78.02;98577.44;1737063;81;21584;-64
2021/08/02 04:37:28;;;;;;;3.05;2.30;;;;;;;17.65;78.02;98570.40;1753937;81;20898;-63
2021/08/02 04:39:55;;;;;;;9.08;2.15;;;;;;;17.82;78.57;98575.92;1722387;82;20959;-63
2021/08/02 04:42:21;;;;;;;5.67;2.10;;;;;;;18.43;78.56;98569.98;1740438;80;20931;-64
2021/08/02 04:44:48;;;;;;;2.70;1.90;;;;;;;18.42;77.36;98570.95;1740211;81;21625;-64
2021/08/02 04:47:15;;;;;;;2.22;2.02;;;;;;;18.25;77.46;98574.41;1744035;81;21048;-63
2021/08/02 04:49:41;;;;;;;6.10;2.10;;;;;;;18.04;77.18;98572.88;1732906;81;20922;-63
2021/08/02 04:52:08;;;;;;;4.08;2.12;;;;;;;17.78;77.13;98577.14;1737748;81;21537;-63
2021/08/02 04:54:34;;;;;;;2.20;2.00;;;;;;;18.23;78.58;98585.61;1734489;81;20921;-63
2021/08/02 04:57:01;;;;;;;2.00;1.70;;;;;;;18.68;77.48;98580.77;1744816;81;20890;-64
2021/08/02 04:59:28;;;;;;;3.12;2.00;;;;;;;18.83;76.93;98587.22;1739945;81;21758;-64
2021/08/02 05:01:55;;;;;;;3.92;2.08;;;;;;;19.44;76.70;98591.63;1740428;81;20894;-64
2021/08/02 05:04:22;;;;;;;1.98;1.72;;;;;;;19.88;77.09;98592.03;1747915;81;21498;-64
2021/08/02 05:06:48;;;;;;;2.85;2.00;;;;;;;20.27;76.16;98589.67;1715375;81;21034;-64
2021/08/02 05:09:15;;;;;;;3.95;1.70;;;;;;;20.48;75.71;98589.73;1744090;81;20958;-64
2021/08/02 05:11:42;;;;;;;2.85;2.12;;;;;;;21.01;76.07;98591.13;1745594;81;21067;-64
2021/08/02 05:14:09;;;;;;;8.93;2.02;;;;;;;21.26;75.53;98585.77;1717121;81;20966;-63
2021/08/02 05:16:36;;;;;;;7.42;2.00;;;;;;;21.41;75.17;98589.45;1746594;81;20907;-64
2021/08/02 05:19:02;;;;;;;15.53;3.22;;;;;;;21.27;74.44;98590.11;1744255;81;20900;-64
2021/08/02 05:21:29;;;;;;;11.12;3.27;;;;;;;20.95;74.40;98586.49;1742486;81;21405;-63
2021/08/02 05:23:56;;;;;;;22.37;4.83;;;;;;;20.62;74.45;98586.47;1745821;81;21378;-64
2021/08/02 05:26:23;;;;;;;44.50;6.87;;;;;;;20.30;74.13;98584.05;1718128;81;20922;-64
2021/08/02 05:28:49;;;;;;;60.80;8.53;;;;;;;19.95;73.97;98594.89;1735386;81;20864;-63
2021/08/02 05:31:16;;;;;;;77.47;10.63;;;;;;;19.68;74.35;98590.13;1714814;82;20939;-63
2021/08/02 05:33:43;;;;;;;46.10;7.80;;;;;;;19.45;74.37;98602.55;1730195;82;20901;-64
2021/08/02 05:36:09;;;;;;;33.85;7.65;;;;;;;19.23;74.15;98599.91;1730090;82;21091;-63
2021/08/02 05:38:36;;;;;;;39.40;7.60;;;;;;;19.01;74.05;98598.59;1686549;82;21355;-64
2021/08/02 05:41:03;;;;;;;;;;;;;;;18.78;73.99;98597.42;1736338;82;21033;-64
2021/08/02 05:43:29;;;;;;;27.45;6.05;;;;;;;18.70;74.40;98595.50;1730801;82;20087;-63
2021/08/02 05:45:56;;;;;;;38.92;5.10;;;;;;;18.69;74.39;98596.98;1729369;82;20921;-63
2021/08/02 05:48:23;;;;;;;134.60;18.20;;;;;;;18.58;73.98;98601.18;1726641;81;21465;-64
2021/08/02 05:50:50;;;;;;;133.07;22.25;;;;;;;18.70;74.37;98597.31;1729415;81;20985;-63
2021/08/02 05:53:17;;;;;;;66.90;10.63;;;;;;;19.09;74.09;98594.36;1740618;81;20911;-63
2021/08/02 05:55:44;;;;;;;87.53;22.90;;;;;;;19.50;74.48;98593.31;1738762;80;21474;-63
2021/08/02 05:58:11;;;;;;;;;;;;;;;20.45;74.49;98590.06;1741161;80;21493;-64
2021/08/02 06:00:42;;;;;;;37.20;12.80;;;;;;;21.50;74.04;98580.45;1739743;81;21044;-64
2021/08/02 06:03:09;;;;;;;97.12;17.05;;;;;;;22.48;73.01;98580.03;1740534;81;20963;-64
2021/08/02 06:05:35;;;;;;;80.25;15.93;;;;;;;23.04;72.39;98581.63;1739050;81;20959;-65
2021/08/02 06:08:02;;;;;;;47.60;14.20;;;;;;;23.44;71.82;98575.92;1735640;81;21509;-62
2021/08/02 06:10:29;;;;;;;223.13;32.65;;;;;;;23.88;70.81;98567.09;1737278;81;20906;-62
2021/08/02 06:12:56;;;;;;;30.92;5.58;;;;;;;24.40;71.67;98579.09;1708643;81;21126;-63
2021/08/02 06:15:22;;;;;;;222.58;36.35;;;;;;;24.81;69.96;98575.81;1709984;81;21651;-63
2021/08/02 06:17:49;;;;;;;;;;;;;;;25.16;70.71;98585.59;1740566;81;20899;-63
2021/08/02 06:20:15;;;;;;;82.25;18.00;;;;;;;25.75;68.50;98584.84;1712014;81;20097;-64
2021/08/02 06:22:42;;;;;;;15.35;4.15;;;;;;;25.98;68.98;98586.73;1736343;81;21413;-63
2021/08/02 06:25:09;;;;;;;176.37;29.40;;;;;;;25.65;67.50;98588.72;1733334;81;21892;-63
2021/08/02 06:27:36;;;;;;;81.95;16.07;;;;;;;25.79;67.50;98588.77;1736598;81;20951;-62
2021/08/02 06:30:05;;;;;;;222.48;32.25;;;;;;;25.47;66.82;98584.89;1738755;81;21023;-64
2021/08/02 06:32:31;;;;;;;102.65;16.32;;;;;;;25.54;67.55;98580.40;1736085;82;21447;-64
2021/08/02 06:34:58;;;;;;;125.78;22.65;;;;;;;25.84;67.37;98586.36;1735336;82;21864;-63
2021/08/02 06:37:27;;;;;;;89.03;15.53;;;;;;;26.33;66.96;98586.66;1733445;82;21031;-64
2021/08/02 06:39:54;;;;;;;92.00;11.80;;;;;;;26.61;66.65;98588.38;1738039;82;20883;-65
2021/08/02 06:42:20;;;;;;;63.42;12.40;;;;;;;26.85;65.93;98591.00;1730495;82;20914;-64
2021/08/02 06:44:47;;;;;;;36.40;7.80;;;;;;;27.05;64.77;98588.33;1732883;81;20918;-64
2021/08/02 06:47:14;;;;;;;188.42;28.12;;;;;;;26.75;63.62;98582.05;1736594;82;20942;-65
2021/08/02 06:49:41;;;;;;;70.28;12.60;;;;;;;26.23;63.85;98590.23;1739148;82;22605;-65
2021/08/02 06:52:07;;;;;;;78.17;14.55;;;;;;;26.49;64.14;98591.63;1743150;82;21019;-66
2021/08/02 06:54:34;;;;;;;65.47;11.00;;;;;;;25.92;62.28;98580.84;1737581;82;21466;-65
2021/08/02 06:57:03;;;;;;;13.45;3.25;;;;;;;25.32;62.07;98587.65;1741341;82;21499;-65
2021/08/02 06:59:29;;;;;;;94.28;14.50;;;;;;;24.92;57.46;98591.31;1737263;82;20960;-65
2021/08/02 07:01:56;;;;;;;39.92;6.95;;;;;;;23.69;60.27;98586.28;1736047;82;21060;-65
2021/08/02 07:04:23;;;;;;;14.98;2.12;;;;;;;22.99;59.00;98598.14;1741985;82;20903;-65
2021/08/02 07:06:50;;;;;;;13.48;2.20;;;;;;;21.66;59.25;98591.03;1738666;82;20966;-65
2021/08/02 07:09:16;;;;;;;3.52;1.12;;;;;;;20.89;60.83;98605.70;1740717;82;20879;-64
2021/08/02 07:11:43;;;;;;;11.73;1.50;;;;;;;20.40;60.94;98602.97;1736923;82;21461;-64
2021/08/02 07:14:11;;;;;;;6.25;1.92;;;;;;;20.55;62.16;98602.69;1709826;82;21230;-64
2021/08/02 07:16:40;;;;;;;11.15;1.60;;;;;;;21.23;62.51;98603.72;1734432;82;21477;-65
2021/08/02 07:19:06;;;;;;;2.75;1.17;;;;;;;22.07;62.29;98597.53;1734065;82;20931;-65
2021/08/02 07:21:33;;;;;;;3.75;1.02;;;;;;;22.55;60.13;98588.97;1737166;82;20952;-65
2021/08/02 07:24:00;;;;;;;10.95;1.87;;;;;;;22.51;60.10;98587.65;1736107;82;21013;-65
2021/08/02 07:26:33;;;;;;;4.05;1.00;;;;;;;22.17;60.31;98587.17;1734666;82;20852;-64
2021/08/02 07:29:01;;;;;;;6.22;1.47;;;;;;;21.88;60.13;98597.44;1706737;82;21542;-65
2021/08/02 07:31:28;;;;;;;6.92;1.25;;;;;;;21.62;60.22;98601.69;1731373;81;21004;-64
2021/08/02 07:33:55;;;;;;;7.97;1.50;;;;;;;21.24;60.19;98608.02;1736812;82;20891;-65
2021/08/02 07:36:22;;;;;;;5.05;1.47;;;;;;;20.76;60.32;98611.52;1736341;81;20910;-64
2021/08/02 07:38:50;;;;;;;4.97;1.75;;;;;;;20.48;60.62;98610.95;1736160;81;21049;-64
2021/08/02 07:41:17;;;;;;;11.00;2.10;;;;;;;20.24;60.50;98609.88;1732941;82;21008;-64
2021/08/02 07:43:46;;;;;;;;;;;;;;;20.01;60.68;98612.29;1735472;81;20963;-65
2021/08/02 07:46:13;;;;;;;10.35;2.05;;;;;;;19.76;60.83;98609.20;1734850;81;20104;-65
2021/08/02 07:48:40;;;;;;;17.57;2.80;;;;;;;19.78;61.26;98610.70;1738193;81;20943;-65
2021/08/02 07:51:07;;;;;;;10.93;2.27;;;;;;;20.08;61.63;98620.42;1734440;81;21852;-65
2021/08/02 07:53:35;;;;;;;30.45;3.55;;;;;;;20.35;61.30;98616.70;1729913;81;21472;-65
2021/08/02 07:56:02;;;;;;;11.03;1.95;;;;;;;20.47;61.01;98617.22;1733556;81;21456;-64
2021/08/02 07:58:28;;;;;;;28.62;2.25;;;;;;;20.45;60.95;98624.53;1733866;81;20951;-65
2021/08/02 08:00:55;;;;;;;51.10;7.95;;;;;;;20.28;60.86;98624.48;1734018;82;20923;-64
2021/08/02 08:03:22;;;;;;;13.72;2.25;;;;;;;20.14;60.75;98634.38;1735989;81;21720;-64
2021/08/02 08:05:49;;;;;;;24.98;2.50;;;;;;;19.92;60.49;98631.80;1729531;81;20912;-64
2021/08/02 08:08:16;;;;;;;31.65;4.85;;;;;;;19.62;60.61;98635.73;1727489;81;21493;-65
2021/08/02 08:10:43;;;;;;;212.48;37.55;;;;;;;19.26;60.38;98638.47;1707782;81;26617;-63
2021/08/02 08:13:09;;;;;;;13.20;3.70;;;;;;;18.89;60.76;98642.14;1734783;81;21529;-63
2021/08/02 08:15:37;;;;;;;241.73;37.70;;;;;;;18.63;60.98;98639.89;1733934;81;21871;-64
2021/08/02 08:18:04;;;;;;;128.20;27.70;;;;;;;18.50;61.39;98646.86;1734703;81;20960;-64
2021/08/02 08:20:31;;;;;;;;;;;;;;;18.53;61.66;98630.70;1735477;81;20865;-65
2021/08/02 08:23:03;;;;;;;99.40;17.48;;;;;;;18.78;61.78;98634.44;1735240;81;27018;-67
2021/08/02 08:25:45;;;;;;;;;;;;;;;;;;;;;
2021/08/02 08:27:59;;;;;;;130.37;21.35;;;;;;;19.92;61.93;98627.00;1720192;81;21900;-65
2021/08/02 08:30:27;;;;;;;97.72;15.10;;;;;;;20.47;61.64;98622.53;1745428;81;20967;-65
2021/08/02 08:32:54;;;;;;;157.65;22.00;;;;;;;20.72;60.80;98624.26;1748693;81;21513;-65
2021/08/02 08:35:21;;;;;;;54.83;8.38;;;;;;;20.94;60.79;98624.61;1747404;81;21474;-65
2021/08/02 08:37:48;;;;;;;187.97;29.90;;;;;;;20.78;59.53;98622.30;1743413;81;21091;-66
2021/08/02 08:40:15;;;;;;;;;;;;;;;20.33;59.68;98624.84;1718947;81;21797;-65
2021/08/02 08:42:43;;;;;;;143.17;21.05;;;;;;;20.20;58.89;98631.58;1746330;81;20415;-65
2021/08/02 08:45:10;;;;;;;173.55;28.80;;;;;;;20.32;60.14;98635.09;1717007;81;20879;-65
2021/08/02 08:47:37;;;;;;;96.28;15.43;;;;;;;20.47;60.23;98630.48;1745196;81;21473;-65
2021/08/02 08:50:07;;;;;;;198.80;35.08;;;;;;;20.80;60.20;98632.73;1743574;81;20922;-65
2021/08/02 08:52:36;;;;;;;151.32;26.23;;;;;;;21.21;60.14;98628.27;1744185;81;21206;-65
2021/08/02 08:55:12;;;;;;;36.42;6.22;;;;;;;21.66;60.05;98625.56;1747264;81;21473;-65
2021/08/02 08:57:43;;;;;;;49.70;8.58;;;;;;;22.00;59.80;98621.80;1745170;81;21439;-65
2021/08/02 09:00:27;;;;;;;83.85;10.20;;;;;;;22.44;59.52;98618.63;1749155;81;20939;-65
2021/08/02 09:02:55;;;;;;;41.45;6.25;;;;;;;22.70;58.86;98626.27;1746468;81;21002;-65
2021/08/02 09:05:34;;;;;;;40.43;5.12;;;;;;;22.80;58.75;98618.07;1744579;81;21054;-65
2021/08/02 09:08:02;;;;;;;24.30;2.87;;;;;;;23.00;58.50;98613.94;1746915;81;20923;-65
2021/08/02 09:10:29;;;;;;;59.38;5.50;;;;;;;23.19;58.13;98623.75;1750673;81;21501;-65
2021/08/02 09:13:02;;;;;;;32.83;2.35;;;;;;;22.97;57.20;98626.79;1743975;81;21453;-65
2021/08/02 09:15:45;;;;;;;5.37;1.90;;;;;;;22.44;56.62;98629.27;1742021;81;20896;-65
2021/08/02 09:18:23;;;;;;;18.52;2.80;;;;;;;22.24;57.52;98632.05;1741075;81;21230;-65
2021/08/02 09:21:07;;;;;;;15.93;2.02;;;;;;;22.29;56.75;98633.66;1744731;81;21451;-65
2021/08/02 09:23:34;;;;;;;13.32;2.08;;;;;;;22.06;56.42;98631.73;1739970;81;20863;-65
2021/08/02 09:26:01;;;;;;;23.73;2.65;;;;;;;21.81;56.18;98635.48;1746509;81;20911;-65
2021/08/02 09:28:29;;;;;;;;;;;;;;;21.56;55.94;98646.16;1748090;81;20930;-65
2021/08/02 09:31:03;;;;;;;15.98;2.10;;;;;;;21.12;55.15;98655.81;1746496;81;21040;-64
2021/08/02 09:33:46;;;;;;;37.15;3.22;;;;;;;20.50;55.50;98668.13;1743460;81;20915;-64
2021/08/02 09:36:15;;;;;;;8.68;1.70;;;;;;;19.96;55.34;98677.34;1750857;81;20906;-65
2021/08/02 09:38:43;;;;;;;5.33;1.57;;;;;;;19.29;55.60;98684.48;1745468;81;20875;-65
2021/08/02 09:41:20;;;;;;;3.60;1.62;;;;;;;18.77;56.03;98694.44;1741718;81;20958;-64
2021/08/02 09:43:52;;;;;;;2.77;1.10;;;;;;;18.50;56.43;98711.61;1747363;81;21107;-64
2021/08/02 09:46:19;;;;;;;7.65;1.50;;;;;;;18.08;56.46;98675.93;1744430;81;20964;-64
2021/08/02 09:48:47;;;;;;;2.83;1.02;;;;;;;18.09;56.73;98702.70;1750172;81;20945;-64
2021/08/02 09:51:19;;;;;;;4.37;1.62;;;;;;;18.14;57.02;98694.33;1742095;81;20867;-64
2021/08/02 09:53:49;;;;;;;4.05;1.30;;;;;;;18.43;57.82;98702.13;1743595;81;20967;-64
2021/08/02 09:56:20;;;;;;;4.83;1.17;;;;;;;19.10;57.91;98696.55;1745637;81;21041;-63
2021/08/02 09:58:48;;;;;;;10.82;1.75;;;;;;;19.61;57.61;98700.28;1717295;81;39098;-64
2021/08/02 10:01:19;;;;;;;;;;;;;;;19.97;57.57;98693.09;1744931;81;21473;-64
2021/08/02 10:03:46;;;;;;;24.52;3.72;;;;;;;20.22;56.66;98690.06;1747133;81;20129;-64
2021/08/02 10:06:16;;;;;;;26.85;4.92;;;;;;;20.31;57.25;98698.88;1745495;81;20940;-64
2021/08/02 10:08:44;;;;;;;105.17;16.97;;;;;;;20.45;57.30;98704.08;1739872;81;21043;-64
2021/08/02 10:11:11;;;;;;;31.70;5.80;;;;;;;20.75;57.36;98700.88;1742119;81;20987;-65
2021/08/02 10:13:42;;;;;;;57.03;10.03;;;;;;;20.79;56.88;98704.86;1744656;81;20946;-64
2021/08/02 10:16:14;;;;;;;95.22;13.15;;;;;;;20.66;56.74;98716.42;1740371;81;20945;-64
2021/08/02 10:18:49;;;;;;;36.80;4.78;;;;;;;20.53;56.27;98710.77;1745024;81;21875;-65
2021/08/02 10:21:18;;;;;;;15.53;2.58;;;;;;;20.09;55.79;98704.24;1723835;81;21453;-64
2021/08/02 10:23:45;;;;;;;3.58;1.10;;;;;;;19.77;56.45;98716.29;1743285;81;20946;-65
2021/08/02 10:26:26;;;;;;;8.55;1.92;;;;;;;20.09;56.52;98712.19;1742004;81;20927;-64
2021/08/02 10:28:58;;;;;;;14.20;2.42;;;;;;;20.29;56.52;98705.66;1741433;81;20930;-66
2021/08/02 10:31:27;;;;;;;15.23;2.20;;;;;;;20.71;56.93;98708.81;1702900;81;20965;-64
2021/08/02 10:33:55;;;;;;;23.52;4.10;;;;;;;20.98;56.37;98708.22;1736167;81;21741;-65
2021/08/02 10:36:23;;;;;;;38.02;6.30;;;;;;;21.12;56.44;98710.22;1705547;81;20953;-64
2021/08/02 10:38:53;;;;;;;102.02;14.07;;;;;;;21.28;56.54;98703.25;1726029;81;21449;-64
2021/08/02 10:41:30;;;;;;;230.32;34.27;;;;;;;21.33;55.98;98698.28;1720613;81;22069;-64
2021/08/02 10:43:59;;;;;;;127.90;17.98;;;;;;;21.07;55.34;98704.58;1731828;82;20983;-64
2021/08/02 10:46:28;;;;;;;91.37;13.78;;;;;;;20.99;55.77;98707.22;1725025;82;21347;-64
2021/08/02 10:49:10;;;;;;;70.00;11.12;;;;;;;20.87;55.35;98708.53;1729219;81;20925;-63
2021/08/02 10:51:54;;;;;;;111.88;20.48;;;;;;;20.57;55.12;98713.41;1756044;81;20939;-63
2021/08/02 10:54:21;;;;;;;36.08;7.80;;;;;;;20.24;55.38;98713.25;1752393;80;20882;-64
2021/08/02 10:56:51;;;;;;;85.60;13.65;;;;;;;20.13;55.46;98725.45;1701637;81;20887;-63
2021/08/02 10:59:20;;;;;;;138.80;19.75;;;;;;;19.96;55.28;98725.03;1727151;81;21124;-63
2021/08/02 11:01:56;;;;;;;39.13;5.90;;;;;;;19.81;55.24;98728.25;1738326;81;20911;-62
2021/08/02 11:04:27;;;;;;;181.30;29.95;;;;;;;19.70;55.12;98725.86;1735544;81;20912;-62
2021/08/02 11:06:55;;;;;;;97.20;19.02;;;;;;;19.62;55.30;98727.09;1726933;81;20971;-62
2021/08/02 11:09:33;;;;;;;124.15;19.62;;;;;;;19.53;55.23;98730.17;1737040;81;20931;-61
2021/08/02 11:12:06;;;;;;;115.72;18.07;;;;;;;19.53;55.32;98730.17;1736170;81;21047;-63
2021/08/02 11:14:33;;;;;;;49.55;11.38;;;;;;;19.61;55.48;98730.73;1734158;81;20910;-63
2021/08/02 11:16:59;;;;;;;191.15;25.12;;;;;;;19.76;55.50;98735.83;1733444;81;20871;-64
2021/08/02 11:19:34;;;;;;;67.47;10.72;;;;;;;19.86;55.34;98725.97;1735794;81;20950;-63
2021/08/02 11:22:03;;;;;;;63.87;9.38;;;;;;;19.82;55.27;98742.32;1702740;82;21429;-63
2021/08/02 11:24:37;;;;;;;166.53;16.87;;;;;;;19.94;55.50;98736.27;1752656;80;22117;-64
2021/08/02 11:27:12;;;;;;;240.15;30.17;;;;;;;20.12;55.54;98743.67;1754784;80;20927;-63
2021/08/02 11:29:39;;;;;;;60.55;6.17;;;;;;;20.13;54.97;98732.08;1729185;80;20955;-64
2021/08/02 11:32:12;;;;;;;193.70;20.43;;;;;;;20.06;55.16;98741.66;1777664;80;21504;-63
2021/08/02 11:34:43;;;;;;;232.22;25.95;;;;;;;20.23;55.19;98743.41;1740742;81;21532;-63
2021/08/02 11:37:16;;;;;;;274.67;38.78;;;;;;;20.51;55.36;98729.94;1771518;80;21880;-64
2021/08/02 11:39:48;;;;;;;109.85;15.75;;;;;;;20.49;54.82;98739.87;1748110;81;20988;-63
2021/08/02 11:42:17;;;;;;;93.20;9.40;;;;;;;20.42;54.97;98738.86;1752021;81;20871;-63
2021/08/02 11:44:52;;;;;;;63.50;5.87;;;;;;;20.38;54.75;98729.05;1750695;81;20906;-63